sensor_id;sensor_type;location;lat;lon;timestamp;P1;durP1;ratioP1;P2;durP2;ratioP2
1509;SDS011;746;48.688;9.428;2022-12-17T00:02:32;32.03;;;18.57;;
1509;SDS011;746;48.688;9.428;2022-12-17T00:05:13;29.27;;;19.27;;
1509;SDS011;746;48.688;9.428;2022-12-17T00:07:56;28.93;;;19.03;;
1509;SDS011;746;48.688;9.428;2022-12-17T00:10:34;25.70;;;18.57;;
1509;SDS011;746;48.688;9.428;2022-12-17T00:13:17;29.07;;;19.33;;
1509;SDS011;746;48.688;9.428;2022-12-17T00:15:57;32.77;;;20.83;;
1509;SDS011;746;48.688;9.428;2022-12-17T00:18:36;33.87;;;20.97;;
1509;SDS011;746;48.688;9.428;2022-12-17T00:21:16;25.10;;;18.57;;
1509;SDS011;746;48.688;9.428;2022-12-17T00:23:55;28.23;;;19.10;;
1509;SDS011;746;48.688;9.428;2022-12-17T00:26:45;26.50;;;18.23;;
1509;SDS011;746;48.688;9.428;2022-12-17T00:29:24;28.60;;;18.83;;
1509;SDS011;746;48.688;9.428;2022-12-17T00:32:03;29.97;;;20.50;;
1509;SDS011;746;48.688;9.428;2022-12-17T00:34:42;31.90;;;21.10;;
1509;SDS011;746;48.688;9.428;2022-12-17T00:37:22;32.87;;;21.13;;
1509;SDS011;746;48.688;9.428;2022-12-17T00:40:01;31.77;;;20.77;;
1509;SDS011;746;48.688;9.428;2022-12-17T00:42:40;33.00;;;19.67;;
1509;SDS011;746;48.688;9.428;2022-12-17T00:45:19;28.57;;;20.27;;
1509;SDS011;746;48.688;9.428;2022-12-17T00:48:03;34.63;;;20.83;;
1509;SDS011;746;48.688;9.428;2022-12-17T00:50:42;33.10;;;20.70;;
1509;SDS011;746;48.688;9.428;2022-12-17T00:53:31;96.57;;;37.93;;
1509;SDS011;746;48.688;9.428;2022-12-17T00:56:10;134.27;;;45.40;;
1509;SDS011;746;48.688;9.428;2022-12-17T00:58:49;112.90;;;41.00;;
1509;SDS011;746;48.688;9.428;2022-12-17T01:01:28;70.47;;;30.87;;
1509;SDS011;746;48.688;9.428;2022-12-17T01:04:08;73.07;;;30.20;;
1509;SDS011;746;48.688;9.428;2022-12-17T01:06:47;52.73;;;26.77;;
1509;SDS011;746;48.688;9.428;2022-12-17T01:09:27;43.73;;;24.47;;
1509;SDS011;746;48.688;9.428;2022-12-17T01:12:06;51.93;;;25.70;;
1509;SDS011;746;48.688;9.428;2022-12-17T01:14:45;37.30;;;22.80;;
1509;SDS011;746;48.688;9.428;2022-12-17T01:17:24;35.13;;;22.07;;
1509;SDS011;746;48.688;9.428;2022-12-17T01:20:03;33.53;;;21.73;;
1509;SDS011;746;48.688;9.428;2022-12-17T01:22:44;33.07;;;20.67;;
1509;SDS011;746;48.688;9.428;2022-12-17T01:25:24;30.40;;;20.87;;
1509;SDS011;746;48.688;9.428;2022-12-17T01:28:03;26.10;;;19.30;;
1509;SDS011;746;48.688;9.428;2022-12-17T01:30:42;27.33;;;18.33;;
1509;SDS011;746;48.688;9.428;2022-12-17T01:33:22;26.80;;;19.63;;
1509;SDS011;746;48.688;9.428;2022-12-17T01:36:01;29.87;;;19.53;;
1509;SDS011;746;48.688;9.428;2022-12-17T01:38:40;34.27;;;21.20;;
1509;SDS011;746;48.688;9.428;2022-12-17T01:41:20;32.43;;;20.03;;
1509;SDS011;746;48.688;9.428;2022-12-17T01:47:06;26.23;;;18.37;;
1509;SDS011;746;48.688;9.428;2022-12-17T01:49:48;31.50;;;20.77;;
1509;SDS011;746;48.688;9.428;2022-12-17T01:52:27;33.07;;;20.23;;
1509;SDS011;746;48.688;9.428;2022-12-17T01:55:06;30.93;;;20.33;;
1509;SDS011;746;48.688;9.428;2022-12-17T01:57:46;28.60;;;18.60;;
1509;SDS011;746;48.688;9.428;2022-12-17T02:00:25;28.50;;;18.47;;
1509;SDS011;746;48.688;9.428;2022-12-17T02:03:04;27.13;;;18.53;;
1509;SDS011;746;48.688;9.428;2022-12-17T02:05:44;28.73;;;19.70;;
1509;SDS011;746;48.688;9.428;2022-12-17T02:08:28;29.00;;;19.40;;
1509;SDS011;746;48.688;9.428;2022-12-17T02:11:12;29.73;;;18.63;;
1509;SDS011;746;48.688;9.428;2022-12-17T02:13:57;29.37;;;18.40;;
1509;SDS011;746;48.688;9.428;2022-12-17T02:16:40;26.37;;;17.20;;
1509;SDS011;746;48.688;9.428;2022-12-17T02:19:23;29.57;;;19.00;;
1509;SDS011;746;48.688;9.428;2022-12-17T02:22:07;28.97;;;19.50;;
1509;SDS011;746;48.688;9.428;2022-12-17T02:24:48;30.77;;;19.50;;
1509;SDS011;746;48.688;9.428;2022-12-17T02:27:30;29.30;;;19.90;;
1509;SDS011;746;48.688;9.428;2022-12-17T02:30:10;30.53;;;20.60;;
1509;SDS011;746;48.688;9.428;2022-12-17T02:32:49;28.80;;;19.80;;
1509;SDS011;746;48.688;9.428;2022-12-17T02:35:29;28.37;;;19.87;;
1509;SDS011;746;48.688;9.428;2022-12-17T02:38:15;28.87;;;20.13;;
1509;SDS011;746;48.688;9.428;2022-12-17T02:40:54;30.43;;;20.20;;
1509;SDS011;746;48.688;9.428;2022-12-17T02:43:34;30.40;;;19.17;;
1509;SDS011;746;48.688;9.428;2022-12-17T02:46:13;26.50;;;18.67;;
1509;SDS011;746;48.688;9.428;2022-12-17T02:48:52;26.70;;;19.00;;
1509;SDS011;746;48.688;9.428;2022-12-17T02:51:31;26.83;;;18.60;;
1509;SDS011;746;48.688;9.428;2022-12-17T02:54:11;27.60;;;19.67;;
1509;SDS011;746;48.688;9.428;2022-12-17T02:56:50;25.53;;;18.53;;
1509;SDS011;746;48.688;9.428;2022-12-17T02:59:30;31.87;;;20.50;;
1509;SDS011;746;48.688;9.428;2022-12-17T03:02:23;28.10;;;19.70;;
1509;SDS011;746;48.688;9.428;2022-12-17T03:05:02;28.67;;;19.50;;
1509;SDS011;746;48.688;9.428;2022-12-17T03:08:01;30.07;;;19.57;;
1509;SDS011;746;48.688;9.428;2022-12-17T03:10:39;30.10;;;20.07;;
1509;SDS011;746;48.688;9.428;2022-12-17T03:13:21;29.70;;;19.53;;
1509;SDS011;746;48.688;9.428;2022-12-17T03:16:07;31.83;;;21.43;;
1509;SDS011;746;48.688;9.428;2022-12-17T03:18:51;31.47;;;19.77;;
1509;SDS011;746;48.688;9.428;2022-12-17T03:21:31;29.23;;;20.57;;
1509;SDS011;746;48.688;9.428;2022-12-17T03:24:10;26.83;;;19.03;;
1509;SDS011;746;48.688;9.428;2022-12-17T03:26:49;26.60;;;18.90;;
1509;SDS011;746;48.688;9.428;2022-12-17T03:29:28;27.97;;;19.70;;
1509;SDS011;746;48.688;9.428;2022-12-17T03:32:08;29.77;;;20.43;;
1509;SDS011;746;48.688;9.428;2022-12-17T03:34:46;28.73;;;20.60;;
1509;SDS011;746;48.688;9.428;2022-12-17T03:37:25;29.43;;;20.27;;
1509;SDS011;746;48.688;9.428;2022-12-17T03:40:05;27.00;;;20.30;;
1509;SDS011;746;48.688;9.428;2022-12-17T03:42:44;26.43;;;20.00;;
1509;SDS011;746;48.688;9.428;2022-12-17T03:45:23;29.93;;;20.23;;
1509;SDS011;746;48.688;9.428;2022-12-17T03:48:04;28.17;;;20.00;;
1509;SDS011;746;48.688;9.428;2022-12-17T03:50:43;25.50;;;19.33;;
1509;SDS011;746;48.688;9.428;2022-12-17T03:53:21;28.30;;;19.60;;
1509;SDS011;746;48.688;9.428;2022-12-17T03:56:01;26.13;;;19.03;;
1509;SDS011;746;48.688;9.428;2022-12-17T03:58:39;28.33;;;19.47;;
1509;SDS011;746;48.688;9.428;2022-12-17T04:01:18;26.97;;;19.47;;
1509;SDS011;746;48.688;9.428;2022-12-17T04:03:59;29.37;;;20.50;;
1509;SDS011;746;48.688;9.428;2022-12-17T04:06:38;29.37;;;20.10;;
1509;SDS011;746;48.688;9.428;2022-12-17T04:09:16;29.10;;;20.17;;
1509;SDS011;746;48.688;9.428;2022-12-17T04:11:55;27.73;;;19.60;;
1509;SDS011;746;48.688;9.428;2022-12-17T04:14:34;27.10;;;19.93;;
1509;SDS011;746;48.688;9.428;2022-12-17T04:17:14;27.43;;;19.27;;
1509;SDS011;746;48.688;9.428;2022-12-17T04:19:53;29.23;;;20.53;;
1509;SDS011;746;48.688;9.428;2022-12-17T04:22:32;28.53;;;20.53;;
1509;SDS011;746;48.688;9.428;2022-12-17T04:25:10;29.00;;;20.63;;
1509;SDS011;746;48.688;9.428;2022-12-17T04:27:49;26.67;;;20.30;;
1509;SDS011;746;48.688;9.428;2022-12-17T04:30:28;27.20;;;19.37;;
1509;SDS011;746;48.688;9.428;2022-12-17T04:33:07;29.37;;;19.87;;
1509;SDS011;746;48.688;9.428;2022-12-17T04:35:48;28.23;;;20.60;;
1509;SDS011;746;48.688;9.428;2022-12-17T04:38:27;29.27;;;21.33;;
1509;SDS011;746;48.688;9.428;2022-12-17T04:41:08;27.87;;;19.63;;
1509;SDS011;746;48.688;9.428;2022-12-17T04:43:46;28.27;;;19.97;;
1509;SDS011;746;48.688;9.428;2022-12-17T04:46:25;32.70;;;20.90;;
1509;SDS011;746;48.688;9.428;2022-12-17T04:49:04;33.47;;;20.37;;
1509;SDS011;746;48.688;9.428;2022-12-17T04:51:44;29.17;;;19.60;;
1509;SDS011;746;48.688;9.428;2022-12-17T04:54:23;31.60;;;20.97;;
1509;SDS011;746;48.688;9.428;2022-12-17T04:57:02;29.70;;;20.33;;
1509;SDS011;746;48.688;9.428;2022-12-17T04:59:41;27.37;;;19.90;;
1509;SDS011;746;48.688;9.428;2022-12-17T05:02:20;28.50;;;19.53;;
1509;SDS011;746;48.688;9.428;2022-12-17T05:05:02;32.20;;;20.97;;
1509;SDS011;746;48.688;9.428;2022-12-17T05:07:42;33.77;;;20.63;;
1509;SDS011;746;48.688;9.428;2022-12-17T05:10:21;32.07;;;20.83;;
1509;SDS011;746;48.688;9.428;2022-12-17T05:13:00;28.10;;;18.97;;
1509;SDS011;746;48.688;9.428;2022-12-17T05:15:39;28.57;;;19.00;;
1509;SDS011;746;48.688;9.428;2022-12-17T05:18:18;28.10;;;19.73;;
1509;SDS011;746;48.688;9.428;2022-12-17T05:20:57;30.60;;;19.17;;
1509;SDS011;746;48.688;9.428;2022-12-17T05:23:37;29.67;;;18.90;;
1509;SDS011;746;48.688;9.428;2022-12-17T05:26:17;27.27;;;19.60;;
1509;SDS011;746;48.688;9.428;2022-12-17T05:28:58;31.20;;;20.30;;
1509;SDS011;746;48.688;9.428;2022-12-17T05:31:37;29.80;;;21.33;;
1509;SDS011;746;48.688;9.428;2022-12-17T05:34:16;28.00;;;19.90;;
1509;SDS011;746;48.688;9.428;2022-12-17T05:36:55;24.47;;;18.23;;
1509;SDS011;746;48.688;9.428;2022-12-17T05:39:35;33.00;;;20.13;;
1509;SDS011;746;48.688;9.428;2022-12-17T05:42:14;27.43;;;20.00;;
1509;SDS011;746;48.688;9.428;2022-12-17T05:44:53;28.53;;;19.27;;
1509;SDS011;746;48.688;9.428;2022-12-17T05:47:32;29.10;;;19.30;;
1509;SDS011;746;48.688;9.428;2022-12-17T05:50:11;29.03;;;20.43;;
1509;SDS011;746;48.688;9.428;2022-12-17T05:52:50;28.40;;;19.70;;
1509;SDS011;746;48.688;9.428;2022-12-17T05:55:30;25.23;;;18.73;;
1509;SDS011;746;48.688;9.428;2022-12-17T05:58:09;29.10;;;19.37;;
1509;SDS011;746;48.688;9.428;2022-12-17T06:00:48;29.23;;;18.30;;
1509;SDS011;746;48.688;9.428;2022-12-17T06:03:27;27.23;;;18.57;;
1509;SDS011;746;48.688;9.428;2022-12-17T06:06:06;28.60;;;18.57;;
1509;SDS011;746;48.688;9.428;2022-12-17T06:08:47;28.23;;;19.43;;
1509;SDS011;746;48.688;9.428;2022-12-17T06:11:27;24.20;;;18.10;;
1509;SDS011;746;48.688;9.428;2022-12-17T06:14:06;24.13;;;17.53;;
1509;SDS011;746;48.688;9.428;2022-12-17T06:16:45;25.03;;;17.97;;
1509;SDS011;746;48.688;9.428;2022-12-17T06:19:24;24.57;;;17.47;;
1509;SDS011;746;48.688;9.428;2022-12-17T06:22:03;24.63;;;18.07;;
1509;SDS011;746;48.688;9.428;2022-12-17T06:24:42;25.27;;;18.33;;
1509;SDS011;746;48.688;9.428;2022-12-17T06:27:22;25.60;;;18.63;;
1509;SDS011;746;48.688;9.428;2022-12-17T06:30:01;23.33;;;17.50;;
1509;SDS011;746;48.688;9.428;2022-12-17T06:32:40;22.93;;;16.27;;
1509;SDS011;746;48.688;9.428;2022-12-17T06:35:19;22.20;;;16.67;;
1509;SDS011;746;48.688;9.428;2022-12-17T06:37:58;24.30;;;17.03;;
1509;SDS011;746;48.688;9.428;2022-12-17T06:40:36;25.20;;;16.57;;
1509;SDS011;746;48.688;9.428;2022-12-17T06:43:17;23.13;;;18.03;;
1509;SDS011;746;48.688;9.428;2022-12-17T06:45:56;25.27;;;17.83;;
1509;SDS011;746;48.688;9.428;2022-12-17T06:48:35;23.60;;;17.90;;
1509;SDS011;746;48.688;9.428;2022-12-17T06:51:10;25.17;;;17.33;;
1509;SDS011;746;48.688;9.428;2022-12-17T06:53:48;26.83;;;18.87;;
1509;SDS011;746;48.688;9.428;2022-12-17T06:56:27;25.60;;;18.53;;
1509;SDS011;746;48.688;9.428;2022-12-17T06:59:08;29.07;;;19.80;;
1509;SDS011;746;48.688;9.428;2022-12-17T07:01:46;32.83;;;21.03;;
1509;SDS011;746;48.688;9.428;2022-12-17T07:04:24;26.93;;;19.03;;
1509;SDS011;746;48.688;9.428;2022-12-17T07:07:03;25.33;;;18.60;;
1509;SDS011;746;48.688;9.428;2022-12-17T07:09:42;27.27;;;18.13;;
1509;SDS011;746;48.688;9.428;2022-12-17T07:12:21;33.50;;;21.73;;
1509;SDS011;746;48.688;9.428;2022-12-17T07:15:01;24.30;;;17.93;;
1509;SDS011;746;48.688;9.428;2022-12-17T07:17:40;26.93;;;18.70;;
1509;SDS011;746;48.688;9.428;2022-12-17T07:20:19;31.47;;;20.70;;
1509;SDS011;746;48.688;9.428;2022-12-17T07:22:58;31.63;;;22.33;;
1509;SDS011;746;48.688;9.428;2022-12-17T07:25:37;31.30;;;22.17;;
1509;SDS011;746;48.688;9.428;2022-12-17T07:28:16;31.00;;;21.90;;
1509;SDS011;746;48.688;9.428;2022-12-17T07:30:56;32.73;;;23.23;;
1509;SDS011;746;48.688;9.428;2022-12-17T07:33:35;28.40;;;19.63;;
1509;SDS011;746;48.688;9.428;2022-12-17T07:36:22;29.67;;;20.50;;
1509;SDS011;746;48.688;9.428;2022-12-17T07:39:01;29.73;;;19.67;;
1509;SDS011;746;48.688;9.428;2022-12-17T07:41:52;29.27;;;20.00;;
1509;SDS011;746;48.688;9.428;2022-12-17T07:44:31;27.27;;;19.70;;
1509;SDS011;746;48.688;9.428;2022-12-17T07:47:25;29.17;;;20.73;;
1509;SDS011;746;48.688;9.428;2022-12-17T07:50:04;27.50;;;20.07;;
1509;SDS011;746;48.688;9.428;2022-12-17T07:52:42;27.60;;;20.30;;
1509;SDS011;746;48.688;9.428;2022-12-17T07:55:21;25.93;;;19.67;;
1509;SDS011;746;48.688;9.428;2022-12-17T07:58:01;25.63;;;20.10;;
1509;SDS011;746;48.688;9.428;2022-12-17T08:00:40;26.30;;;19.37;;
1509;SDS011;746;48.688;9.428;2022-12-17T08:03:35;27.17;;;19.10;;
1509;SDS011;746;48.688;9.428;2022-12-17T08:06:14;29.20;;;21.53;;
1509;SDS011;746;48.688;9.428;2022-12-17T08:08:53;29.43;;;20.23;;
1509;SDS011;746;48.688;9.428;2022-12-17T08:11:31;30.67;;;19.77;;
1509;SDS011;746;48.688;9.428;2022-12-17T08:14:10;27.63;;;18.90;;
1509;SDS011;746;48.688;9.428;2022-12-17T08:16:49;27.23;;;18.93;;
1509;SDS011;746;48.688;9.428;2022-12-17T08:19:30;27.00;;;19.33;;
1509;SDS011;746;48.688;9.428;2022-12-17T08:22:08;29.57;;;19.43;;
1509;SDS011;746;48.688;9.428;2022-12-17T08:24:48;26.17;;;18.07;;
1509;SDS011;746;48.688;9.428;2022-12-17T08:27:27;26.47;;;19.10;;
1509;SDS011;746;48.688;9.428;2022-12-17T08:30:06;28.17;;;20.40;;
1509;SDS011;746;48.688;9.428;2022-12-17T08:32:45;34.83;;;23.87;;
1509;SDS011;746;48.688;9.428;2022-12-17T08:35:39;35.20;;;23.83;;
1509;SDS011;746;48.688;9.428;2022-12-17T08:38:18;36.23;;;24.40;;
1509;SDS011;746;48.688;9.428;2022-12-17T08:40:58;36.07;;;24.47;;
1509;SDS011;746;48.688;9.428;2022-12-17T08:43:52;28.17;;;21.03;;
1509;SDS011;746;48.688;9.428;2022-12-17T08:46:30;31.07;;;21.70;;
1509;SDS011;746;48.688;9.428;2022-12-17T08:49:09;32.00;;;21.93;;
1509;SDS011;746;48.688;9.428;2022-12-17T08:51:49;31.23;;;22.57;;
1509;SDS011;746;48.688;9.428;2022-12-17T08:54:28;31.20;;;22.53;;
1509;SDS011;746;48.688;9.428;2022-12-17T08:57:07;38.70;;;24.63;;
1509;SDS011;746;48.688;9.428;2022-12-17T08:59:51;42.07;;;27.00;;
1509;SDS011;746;48.688;9.428;2022-12-17T09:02:30;35.77;;;25.13;;
1509;SDS011;746;48.688;9.428;2022-12-17T09:05:09;39.57;;;26.37;;
1509;SDS011;746;48.688;9.428;2022-12-17T09:07:56;37.47;;;26.03;;
1509;SDS011;746;48.688;9.428;2022-12-17T09:10:35;39.03;;;24.53;;
1509;SDS011;746;48.688;9.428;2022-12-17T09:13:14;37.30;;;25.47;;
1509;SDS011;746;48.688;9.428;2022-12-17T09:15:54;38.50;;;26.00;;
1509;SDS011;746;48.688;9.428;2022-12-17T09:18:33;39.27;;;26.13;;
1509;SDS011;746;48.688;9.428;2022-12-17T09:21:12;41.30;;;26.00;;
1509;SDS011;746;48.688;9.428;2022-12-17T09:23:52;39.87;;;26.40;;
1509;SDS011;746;48.688;9.428;2022-12-17T09:26:31;45.80;;;28.70;;
1509;SDS011;746;48.688;9.428;2022-12-17T09:29:10;41.90;;;25.60;;
1509;SDS011;746;48.688;9.428;2022-12-17T09:31:49;44.53;;;27.20;;
1509;SDS011;746;48.688;9.428;2022-12-17T09:34:28;44.97;;;28.73;;
1509;SDS011;746;48.688;9.428;2022-12-17T09:37:07;43.80;;;29.20;;
1509;SDS011;746;48.688;9.428;2022-12-17T09:39:47;39.53;;;27.20;;
1509;SDS011;746;48.688;9.428;2022-12-17T09:42:24;38.30;;;25.90;;
1509;SDS011;746;48.688;9.428;2022-12-17T09:45:12;43.67;;;27.57;;
1509;SDS011;746;48.688;9.428;2022-12-17T09:47:54;43.43;;;28.17;;
1509;SDS011;746;48.688;9.428;2022-12-17T09:50:36;41.50;;;27.63;;
1509;SDS011;746;48.688;9.428;2022-12-17T09:53:18;48.30;;;30.13;;
1509;SDS011;746;48.688;9.428;2022-12-17T09:56:00;42.20;;;25.90;;
1509;SDS011;746;48.688;9.428;2022-12-17T09:58:39;44.43;;;27.67;;
1509;SDS011;746;48.688;9.428;2022-12-17T10:01:18;45.07;;;29.80;;
1509;SDS011;746;48.688;9.428;2022-12-17T10:03:58;46.67;;;29.33;;
1509;SDS011;746;48.688;9.428;2022-12-17T10:06:38;49.17;;;29.70;;
1509;SDS011;746;48.688;9.428;2022-12-17T10:09:17;46.20;;;28.77;;
1509;SDS011;746;48.688;9.428;2022-12-17T10:11:58;43.13;;;29.03;;
1509;SDS011;746;48.688;9.428;2022-12-17T10:14:37;42.53;;;28.33;;
1509;SDS011;746;48.688;9.428;2022-12-17T10:17:17;39.10;;;27.30;;
1509;SDS011;746;48.688;9.428;2022-12-17T10:19:56;44.17;;;30.50;;
1509;SDS011;746;48.688;9.428;2022-12-17T10:22:40;76.17;;;46.47;;
1509;SDS011;746;48.688;9.428;2022-12-17T10:25:21;44.03;;;30.03;;
1509;SDS011;746;48.688;9.428;2022-12-17T10:28:02;43.10;;;30.23;;
1509;SDS011;746;48.688;9.428;2022-12-17T10:30:42;41.63;;;28.40;;
1509;SDS011;746;48.688;9.428;2022-12-17T10:33:21;43.00;;;29.87;;
1509;SDS011;746;48.688;9.428;2022-12-17T10:36:01;44.17;;;29.47;;
1509;SDS011;746;48.688;9.428;2022-12-17T10:38:40;45.90;;;30.03;;
1509;SDS011;746;48.688;9.428;2022-12-17T10:41:20;43.90;;;30.70;;
1509;SDS011;746;48.688;9.428;2022-12-17T10:44:00;44.23;;;29.57;;
1509;SDS011;746;48.688;9.428;2022-12-17T10:46:39;42.37;;;29.67;;
1509;SDS011;746;48.688;9.428;2022-12-17T10:49:18;42.97;;;29.03;;
1509;SDS011;746;48.688;9.428;2022-12-17T10:51:58;44.13;;;29.90;;
1509;SDS011;746;48.688;9.428;2022-12-17T10:54:37;44.60;;;29.43;;
1509;SDS011;746;48.688;9.428;2022-12-17T10:57:19;41.33;;;29.03;;
1509;SDS011;746;48.688;9.428;2022-12-17T11:00:00;45.60;;;30.67;;
1509;SDS011;746;48.688;9.428;2022-12-17T11:02:44;45.30;;;32.57;;
1509;SDS011;746;48.688;9.428;2022-12-17T11:05:40;43.67;;;30.63;;
1509;SDS011;746;48.688;9.428;2022-12-17T11:08:19;47.60;;;30.57;;
1509;SDS011;746;48.688;9.428;2022-12-17T11:10:58;42.43;;;29.13;;
1509;SDS011;746;48.688;9.428;2022-12-17T11:13:39;45.90;;;31.63;;
1509;SDS011;746;48.688;9.428;2022-12-17T11:16:21;49.07;;;32.77;;
1509;SDS011;746;48.688;9.428;2022-12-17T11:19:06;42.07;;;28.43;;
1509;SDS011;746;48.688;9.428;2022-12-17T11:21:51;39.53;;;28.77;;
1509;SDS011;746;48.688;9.428;2022-12-17T11:24:32;44.20;;;30.73;;
1509;SDS011;746;48.688;9.428;2022-12-17T11:27:14;42.70;;;29.77;;
1509;SDS011;746;48.688;9.428;2022-12-17T11:29:54;43.57;;;29.60;;
1509;SDS011;746;48.688;9.428;2022-12-17T11:32:40;41.47;;;29.33;;
1509;SDS011;746;48.688;9.428;2022-12-17T11:35:23;42.33;;;29.57;;
1509;SDS011;746;48.688;9.428;2022-12-17T11:38:01;41.13;;;29.67;;
1509;SDS011;746;48.688;9.428;2022-12-17T11:40:42;44.17;;;30.90;;
1509;SDS011;746;48.688;9.428;2022-12-17T11:43:23;43.20;;;29.83;;
1509;SDS011;746;48.688;9.428;2022-12-17T11:46:07;41.47;;;28.67;;
1509;SDS011;746;48.688;9.428;2022-12-17T11:48:50;48.27;;;29.77;;
1509;SDS011;746;48.688;9.428;2022-12-17T11:51:31;40.23;;;29.43;;
1509;SDS011;746;48.688;9.428;2022-12-17T11:54:17;44.37;;;30.47;;
1509;SDS011;746;48.688;9.428;2022-12-17T11:57:00;46.33;;;31.67;;
1509;SDS011;746;48.688;9.428;2022-12-17T11:59:43;46.70;;;31.37;;
1509;SDS011;746;48.688;9.428;2022-12-17T12:02:29;55.07;;;37.40;;
1509;SDS011;746;48.688;9.428;2022-12-17T12:05:16;47.87;;;33.30;;
1509;SDS011;746;48.688;9.428;2022-12-17T12:07:57;48.20;;;33.07;;
1509;SDS011;746;48.688;9.428;2022-12-17T12:10:38;40.80;;;28.90;;
1509;SDS011;746;48.688;9.428;2022-12-17T12:13:21;44.83;;;31.13;;
1509;SDS011;746;48.688;9.428;2022-12-17T12:16:06;44.43;;;31.13;;
1509;SDS011;746;48.688;9.428;2022-12-17T12:18:49;43.67;;;30.20;;
1509;SDS011;746;48.688;9.428;2022-12-17T12:21:38;44.97;;;31.83;;
1509;SDS011;746;48.688;9.428;2022-12-17T12:24:21;43.67;;;31.37;;
1509;SDS011;746;48.688;9.428;2022-12-17T12:27:03;45.63;;;32.37;;
1509;SDS011;746;48.688;9.428;2022-12-17T12:29:45;44.67;;;32.73;;
1509;SDS011;746;48.688;9.428;2022-12-17T12:32:27;43.43;;;31.30;;
1509;SDS011;746;48.688;9.428;2022-12-17T12:35:11;47.43;;;31.93;;
1509;SDS011;746;48.688;9.428;2022-12-17T12:37:53;44.53;;;30.80;;
1509;SDS011;746;48.688;9.428;2022-12-17T12:40:35;44.77;;;31.70;;
1509;SDS011;746;48.688;9.428;2022-12-17T12:43:17;46.97;;;31.67;;
1509;SDS011;746;48.688;9.428;2022-12-17T12:46:00;50.50;;;32.80;;
1509;SDS011;746;48.688;9.428;2022-12-17T12:48:41;47.07;;;31.63;;
1509;SDS011;746;48.688;9.428;2022-12-17T12:51:22;46.03;;;31.30;;
1509;SDS011;746;48.688;9.428;2022-12-17T12:54:19;46.77;;;31.90;;
1509;SDS011;746;48.688;9.428;2022-12-17T12:56:58;43.63;;;30.23;;
1509;SDS011;746;48.688;9.428;2022-12-17T12:59:37;46.33;;;31.03;;
1509;SDS011;746;48.688;9.428;2022-12-17T13:02:25;44.37;;;30.80;;
1509;SDS011;746;48.688;9.428;2022-12-17T13:05:15;48.37;;;32.23;;
1509;SDS011;746;48.688;9.428;2022-12-17T13:08:00;48.23;;;33.40;;
1509;SDS011;746;48.688;9.428;2022-12-17T13:10:26;46.50;;;32.47;;
1509;SDS011;746;48.688;9.428;2022-12-17T13:12:48;50.60;;;34.17;;
1509;SDS011;746;48.688;9.428;2022-12-17T13:15:17;49.33;;;32.73;;
1509;SDS011;746;48.688;9.428;2022-12-17T13:17:43;47.33;;;32.13;;
1509;SDS011;746;48.688;9.428;2022-12-17T13:20:22;54.10;;;34.80;;
1509;SDS011;746;48.688;9.428;2022-12-17T13:22:47;56.27;;;36.80;;
1509;SDS011;746;48.688;9.428;2022-12-17T13:25:13;59.23;;;38.57;;
1509;SDS011;746;48.688;9.428;2022-12-17T13:27:37;59.97;;;38.60;;
1509;SDS011;746;48.688;9.428;2022-12-17T13:30:10;62.30;;;41.53;;
1509;SDS011;746;48.688;9.428;2022-12-17T13:32:37;55.20;;;36.23;;
1509;SDS011;746;48.688;9.428;2022-12-17T13:35:03;57.67;;;38.13;;
1509;SDS011;746;48.688;9.428;2022-12-17T13:37:31;51.77;;;34.80;;
1509;SDS011;746;48.688;9.428;2022-12-17T13:39:57;53.97;;;35.83;;
1509;SDS011;746;48.688;9.428;2022-12-17T13:42:22;52.53;;;33.87;;
1509;SDS011;746;48.688;9.428;2022-12-17T13:44:47;49.27;;;33.40;;
1509;SDS011;746;48.688;9.428;2022-12-17T13:47:16;55.90;;;38.10;;
1509;SDS011;746;48.688;9.428;2022-12-17T13:49:38;54.83;;;37.40;;
1509;SDS011;746;48.688;9.428;2022-12-17T13:52:00;58.50;;;37.93;;
1509;SDS011;746;48.688;9.428;2022-12-17T13:54:29;50.83;;;35.33;;
1509;SDS011;746;48.688;9.428;2022-12-17T13:56:51;52.57;;;34.33;;
1509;SDS011;746;48.688;9.428;2022-12-17T13:59:16;54.83;;;34.70;;
1509;SDS011;746;48.688;9.428;2022-12-17T14:01:44;57.07;;;36.83;;
1509;SDS011;746;48.688;9.428;2022-12-17T14:04:17;54.03;;;36.80;;
1509;SDS011;746;48.688;9.428;2022-12-17T14:06:39;53.77;;;36.10;;
1509;SDS011;746;48.688;9.428;2022-12-17T14:09:01;54.10;;;36.87;;
1509;SDS011;746;48.688;9.428;2022-12-17T14:11:22;61.00;;;39.07;;
1509;SDS011;746;48.688;9.428;2022-12-17T14:14:02;50.50;;;35.77;;
1509;SDS011;746;48.688;9.428;2022-12-17T14:16:23;51.93;;;36.67;;
1509;SDS011;746;48.688;9.428;2022-12-17T14:18:47;56.83;;;37.90;;
1509;SDS011;746;48.688;9.428;2022-12-17T14:21:10;55.97;;;38.27;;
1509;SDS011;746;48.688;9.428;2022-12-17T14:23:31;51.43;;;36.17;;
1509;SDS011;746;48.688;9.428;2022-12-17T14:25:53;51.27;;;34.90;;
1509;SDS011;746;48.688;9.428;2022-12-17T14:28:19;53.83;;;34.83;;
1509;SDS011;746;48.688;9.428;2022-12-17T14:30:41;56.73;;;36.43;;
1509;SDS011;746;48.688;9.428;2022-12-17T14:33:24;128.03;;;75.77;;
1509;SDS011;746;48.688;9.428;2022-12-17T14:35:50;103.50;;;59.87;;
1509;SDS011;746;48.688;9.428;2022-12-17T14:38:16;63.53;;;41.20;;
1509;SDS011;746;48.688;9.428;2022-12-17T14:41:00;60.43;;;39.43;;
1509;SDS011;746;48.688;9.428;2022-12-17T14:43:41;94.43;;;53.93;;
1509;SDS011;746;48.688;9.428;2022-12-17T14:46:03;59.07;;;40.07;;
1509;SDS011;746;48.688;9.428;2022-12-17T14:48:42;65.07;;;40.57;;
1509;SDS011;746;48.688;9.428;2022-12-17T14:51:22;77.23;;;49.67;;
1509;SDS011;746;48.688;9.428;2022-12-17T14:53:44;65.40;;;41.63;;
1509;SDS011;746;48.688;9.428;2022-12-17T14:56:16;74.43;;;46.53;;
1509;SDS011;746;48.688;9.428;2022-12-17T14:58:43;69.83;;;42.80;;
1509;SDS011;746;48.688;9.428;2022-12-17T15:01:05;76.63;;;42.77;;
1509;SDS011;746;48.688;9.428;2022-12-17T15:03:29;65.97;;;40.23;;
1509;SDS011;746;48.688;9.428;2022-12-17T15:05:52;66.80;;;41.97;;
1509;SDS011;746;48.688;9.428;2022-12-17T15:08:16;68.47;;;43.00;;
1509;SDS011;746;48.688;9.428;2022-12-17T15:10:37;69.50;;;41.60;;
1509;SDS011;746;48.688;9.428;2022-12-17T15:12:58;69.80;;;42.87;;
1509;SDS011;746;48.688;9.428;2022-12-17T15:15:19;66.27;;;40.50;;
1509;SDS011;746;48.688;9.428;2022-12-17T15:17:40;72.70;;;43.13;;
1509;SDS011;746;48.688;9.428;2022-12-17T15:20:01;76.67;;;44.30;;
1509;SDS011;746;48.688;9.428;2022-12-17T15:22:22;82.63;;;45.67;;
1509;SDS011;746;48.688;9.428;2022-12-17T15:24:45;81.50;;;47.10;;
1509;SDS011;746;48.688;9.428;2022-12-17T15:27:07;74.20;;;42.97;;
1509;SDS011;746;48.688;9.428;2022-12-17T15:29:28;71.70;;;39.50;;
1509;SDS011;746;48.688;9.428;2022-12-17T15:31:51;71.37;;;39.73;;
1509;SDS011;746;48.688;9.428;2022-12-17T15:34:12;72.17;;;40.17;;
1509;SDS011;746;48.688;9.428;2022-12-17T15:36:33;73.50;;;42.57;;
1509;SDS011;746;48.688;9.428;2022-12-17T15:38:55;74.80;;;41.87;;
1509;SDS011;746;48.688;9.428;2022-12-17T15:41:18;74.87;;;41.47;;
1509;SDS011;746;48.688;9.428;2022-12-17T15:43:57;73.13;;;40.70;;
1509;SDS011;746;48.688;9.428;2022-12-17T15:46:18;66.13;;;39.50;;
1509;SDS011;746;48.688;9.428;2022-12-17T15:48:39;69.07;;;40.57;;
1509;SDS011;746;48.688;9.428;2022-12-17T15:51:08;69.80;;;39.20;;
1509;SDS011;746;48.688;9.428;2022-12-17T15:53:38;70.43;;;39.13;;
1509;SDS011;746;48.688;9.428;2022-12-17T15:55:59;66.63;;;37.80;;
1509;SDS011;746;48.688;9.428;2022-12-17T15:58:21;65.30;;;38.17;;
1509;SDS011;746;48.688;9.428;2022-12-17T16:00:43;64.93;;;36.67;;
1509;SDS011;746;48.688;9.428;2022-12-17T16:03:04;68.67;;;39.20;;
1509;SDS011;746;48.688;9.428;2022-12-17T16:05:26;62.37;;;36.93;;
1509;SDS011;746;48.688;9.428;2022-12-17T16:07:47;66.67;;;38.23;;